Time;durP1;ratioP1;P1;durP2;ratioP2;P2;SDS_P1;SDS_P2;PMS_P1;PMS_P2;Temp;Humidity;BMP_temperature;BMP_pressure;BME280_temperature;BME280_humidity;BME280_pressure;Samples;Min_cycle;Max_cycle;Signal;HPM_P1;HPM_P2
2023/10/07 00:00:24;;;;;;;11.75;5.45;;;10.40;99.90;;;;;;4991307;28;20134;-77
2023/10/07 00:02:55;;;;;;;11.15;5.22;;;10.40;99.90;;;;;;5004657;28;20055;-74
2023/10/07 00:08:12;;;;;;;12.18;5.40;;;10.40;99.90;;;;;;4993677;28;20046;-77
2023/10/07 00:10:41;;;;;;;13.75;4.68;;;10.50;99.90;;;;;;4995915;28;20082;-79
2023/10/07 00:13:19;;;;;;;10.07;4.72;;;10.40;99.90;;;;;;4999862;28;20469;-78
2023/10/07 00:15:48;;;;;;;13.80;5.03;;;10.40;99.90;;;;;;4999448;28;20106;-79
2023/10/07 00:18:18;;;;;;;13.25;5.05;;;10.40;99.90;;;;;;4999289;28;20073;-78
2023/10/07 00:20:48;;;;;;;9.82;3.90;;;10.40;99.90;;;;;;4998510;28;20030;-79
2023/10/07 00:23:53;;;;;;;10.68;4.68;;;10.30;99.90;;;;;;4998381;28;20061;-79
2023/10/07 00:26:18;;;;;;;;;;;10.30;99.90;;;;;;5000977;28;20037;-79
2023/10/07 00:28:54;;;;;;;11.27;4.45;;;10.20;99.90;;;;;;4997592;28;19913;-78
2023/10/07 00:31:23;;;;;;;9.05;4.78;;;10.20;99.90;;;;;;4991328;28;20023;-78
2023/10/07 00:34:02;;;;;;;9.65;5.15;;;10.20;99.90;;;;;;4994615;28;20019;-79
2023/10/07 00:39:07;;;;;;;10.45;5.40;;;10.10;99.90;;;;;;4993865;28;20033;-78
2023/10/07 00:42:07;;;;;;;10.98;5.85;;;10.00;99.90;;;;;;5005970;28;20074;-77
2023/10/07 00:44:36;;;;;;;11.73;5.63;;;9.90;99.90;;;;;;4988405;28;20011;-76
2023/10/07 00:47:12;;;;;;;14.85;6.28;;;9.90;99.90;;;;;;4988843;28;20084;-77
2023/10/07 00:49:41;;;;;;;10.35;5.20;;;9.90;99.90;;;;;;4987712;28;20041;-77
2023/10/07 00:52:27;;;;;;;10.35;5.53;;;9.80;99.90;;;;;;4991599;28;20018;-77
2023/10/07 00:55:11;;;;;;;8.60;5.00;;;9.80;99.90;;;;;;4993018;28;20018;-77
2023/10/07 00:57:37;;;;;;;10.98;4.38;;;9.80;99.90;;;;;;4986108;28;20464;-77
2023/10/07 01:00:18;;;;;;;9.25;4.25;;;9.80;99.90;;;;;;5000700;28;20035;-78
2023/10/07 01:03:00;;;;;;;10.82;4.65;;;9.80;99.90;;;;;;5000264;28;20101;-78
2023/10/07 01:05:27;;;;;;;11.52;4.65;;;9.80;99.90;;;;;;4997737;28;20030;-76
2023/10/07 01:07:55;;;;;;;10.15;5.00;;;9.80;99.90;;;;;;4995794;28;20116;-77
2023/10/07 01:10:31;;;;;;;11.10;4.85;;;9.80;99.90;;;;;;4996363;28;20814;-78
2023/10/07 01:13:02;;;;;;;13.05;6.05;;;9.70;99.90;;;;;;5010554;28;20392;-76
2023/10/07 01:15:30;;;;;;;8.90;4.80;;;9.70;99.90;;;;;;4996657;28;20022;-77
2023/10/07 01:18:13;;;;;;;8.98;4.35;;;9.70;99.90;;;;;;4997173;28;20022;-76
2023/10/07 01:23:23;;;;;;;12.23;4.75;;;9.60;99.90;;;;;;4996480;28;20109;-77
2023/10/07 01:26:23;;;;;;;12.38;5.75;;;9.50;99.90;;;;;;5008700;28;20091;-79
2023/10/07 01:29:16;;;;;;;12.15;4.97;;;9.50;99.90;;;;;;5005781;28;20018;-79
2023/10/07 01:34:35;;;;;;;10.07;4.72;;;9.50;99.90;;;;;;5003820;28;20089;-77
2023/10/07 01:37:11;;;;;;;9.70;5.10;;;9.40;99.90;;;;;;5005685;28;20026;-78
2023/10/07 01:39:40;;;;;;;9.73;4.43;;;9.40;99.90;;;;;;5002412;28;20026;-78
2023/10/07 01:42:37;;;;;;;10.02;4.32;;;9.40;99.90;;;;;;5005743;28;20026;-78
2023/10/07 01:45:10;;;;;;;10.13;4.60;;;9.40;99.90;;;;;;5003945;28;20061;-78
2023/10/07 01:47:36;;;;;;;10.43;4.63;;;9.40;99.90;;;;;;4995187;28;20022;-77
2023/10/07 01:50:11;;;;;;;11.73;4.85;;;9.40;99.90;;;;;;4996950;28;20037;-77
2023/10/07 01:52:40;;;;;;;15.80;5.15;;;9.40;99.90;;;;;;4996641;28;20030;-77
2023/10/07 01:55:19;;;;;;;11.52;5.03;;;9.30;99.90;;;;;;5005682;28;20031;-77
2023/10/07 01:57:48;;;;;;;10.95;4.68;;;9.30;99.90;;;;;;5006906;28;20030;-77
2023/10/07 02:00:34;;;;;;;11.50;4.90;;;9.30;99.90;;;;;;5001725;28;20133;-78
2023/10/07 02:03:13;;;;;;;11.32;4.68;;;9.30;99.90;;;;;;4993378;28;20101;-77
2023/10/07 02:06:05;;;;;;;10.95;4.47;;;9.20;99.90;;;;;;4992766;28;20042;-78
2023/10/07 02:08:40;;;;;;;10.02;4.13;;;9.10;99.90;;;;;;4974864;28;20058;-78
2023/10/07 02:11:06;;;;;;;11.95;4.40;;;9.10;99.90;;;;;;5014011;28;20094;-79
2023/10/07 02:13:32;;;;;;;8.73;4.00;;;9.10;99.90;;;;;;5019950;28;20029;-78
2023/10/07 02:15:58;;;;;;;11.43;4.25;;;9.10;99.90;;;;;;5022395;28;20018;-79
2023/10/07 02:18:35;;;;;;;7.57;3.90;;;9.10;99.90;;;;;;5037737;28;20029;-78
2023/10/07 02:21:07;;;;;;;8.38;3.85;;;9.00;99.90;;;;;;5018935;28;20030;-78
2023/10/07 02:23:44;;;;;;;7.50;3.97;;;9.10;99.90;;;;;;5013320;28;20064;-79
2023/10/07 02:26:19;;;;;;;9.00;4.22;;;9.00;99.90;;;;;;5017496;28;20105;-79
2023/10/07 02:28:52;;;;;;;8.55;4.25;;;9.00;99.90;;;;;;5018489;28;20061;-78
2023/10/07 02:31:24;;;;;;;10.35;3.88;;;9.00;99.90;;;;;;5021695;28;20034;-79
2023/10/07 02:33:52;;;;;;;8.10;4.35;;;9.00;99.90;;;;;;5016202;28;20029;-79
2023/10/07 02:36:31;;;;;;;8.50;3.92;;;9.00;99.90;;;;;;5010256;28;20033;-78
2023/10/07 02:39:19;;;;;;;8.85;3.58;;;9.10;99.90;;;;;;5013905;28;20177;-79
2023/10/07 02:41:47;;;;;;;11.27;4.32;;;9.10;99.90;;;;;;5014297;28;20018;-79
2023/10/07 02:44:27;;;;;;;8.73;3.60;;;9.10;99.90;;;;;;5032102;28;20022;-78
2023/10/07 02:47:06;;;;;;;11.20;3.95;;;9.10;99.90;;;;;;5016169;28;20041;-78
2023/10/07 02:49:32;;;;;;;9.55;3.53;;;9.10;99.90;;;;;;5014148;28;20073;-78
2023/10/07 02:52:03;;;;;;;10.00;3.83;;;9.10;99.90;;;;;;5013531;28;20025;-75
2023/10/07 02:54:41;;;;;;;11.63;4.72;;;9.10;99.90;;;;;;5007511;28;20064;-75
2023/10/07 02:59:51;;;;;;;;;;;9.10;99.90;;;;;;5007023;28;20264;-75
2023/10/07 03:02:36;;;;;;;13.13;5.32;;;9.10;99.90;;;;;;5006350;28;20008;-75
2023/10/07 03:05:14;;;;;;;9.57;5.30;;;9.10;99.90;;;;;;5008574;28;20093;-75
2023/10/07 03:07:49;;;;;;;13.73;4.93;;;9.00;99.90;;;;;;5006896;28;20500;-75
2023/10/07 03:13:05;;;;;;;12.65;5.78;;;8.80;99.90;;;;;;5007592;28;20022;-75
2023/10/07 03:18:03;;;;;;;11.90;5.55;;;8.80;99.90;;;;;;5006905;28;20025;-75
2023/10/07 03:20:47;;;;;;;12.10;5.38;;;8.70;99.90;;;;;;5020129;28;20056;-75
2023/10/07 03:23:15;;;;;;;14.52;4.80;;;8.70;99.90;;;;;;5007820;28;20354;-75
2023/10/07 03:28:35;;;;;;;9.93;4.95;;;8.60;99.90;;;;;;5006258;28;20030;-75
2023/10/07 03:31:13;;;;;;;10.05;4.90;;;8.60;99.90;;;;;;5009375;28;20025;-75
2023/10/07 03:33:44;;;;;;;15.48;6.03;;;8.50;99.90;;;;;;5005618;28;20026;-75
2023/10/07 03:41:48;;;;;;;9.70;3.97;;;8.50;99.90;;;;;;5006576;28;20500;-74
2023/10/07 03:44:18;;;;;;;10.57;4.18;;;8.50;99.90;;;;;;5005443;28;20021;-75
2023/10/07 03:46:54;;;;;;;9.93;4.22;;;8.50;99.90;;;;;;5005370;28;20185;-75
2023/10/07 03:49:21;;;;;;;8.85;4.22;;;8.50;99.90;;;;;;5008094;28;20285;-75
2023/10/07 03:51:48;;;;;;;6.93;3.60;;;8.50;99.90;;;;;;5007796;28;20057;-75
2023/10/07 03:54:29;;;;;;;12.77;4.60;;;8.50;99.90;;;;;;5006609;28;20030;-75
2023/10/07 03:56:56;;;;;;;9.32;3.90;;;8.50;99.90;;;;;;5007259;28;20068;-74
2023/10/07 03:59:36;;;;;;;7.50;2.92;;;8.50;99.90;;;;;;5007217;28;20022;-75
2023/10/07 04:02:20;;;;;;;8.10;3.47;;;8.50;99.90;;;;;;5004887;28;20034;-75
2023/10/07 04:04:58;;;;;;;8.80;3.65;;;8.50;99.90;;;;;;5003495;28;20027;-75
2023/10/07 04:07:24;;;;;;;8.80;3.55;;;8.50;99.90;;;;;;5004961;28;20559;-74
2023/10/07 04:10:12;;;;;;;8.57;4.32;;;8.50;99.90;;;;;;5007620;28;20030;-75
2023/10/07 04:12:39;;;;;;;8.02;3.63;;;8.50;99.90;;;;;;5005966;28;20034;-75
2023/10/07 04:15:18;;;;;;;10.80;4.45;;;8.50;99.90;;;;;;5006056;28;20030;-75
2023/10/07 04:17:48;;;;;;;11.10;4.30;;;8.50;99.90;;;;;;5005920;28;20507;-74
2023/10/07 04:20:28;;;;;;;8.82;3.92;;;8.50;99.90;;;;;;5006319;28;20034;-75
2023/10/07 04:23:02;;;;;;;10.40;4.75;;;8.40;99.90;;;;;;5005527;28;20557;-74
2023/10/07 04:25:29;;;;;;;7.82;3.85;;;8.40;99.90;;;;;;5006510;28;20476;-74
2023/10/07 04:27:55;;;;;;;16.98;5.10;;;8.40;99.90;;;;;;5009416;28;20022;-74
2023/10/07 04:30:47;;;;;;;8.73;4.32;;;8.40;99.90;;;;;;5007737;28;20040;-74
2023/10/07 04:33:39;;;;;;;11.20;5.10;;;8.40;99.90;;;;;;5004150;28;20056;-74
2023/10/07 04:36:10;;;;;;;12.02;5.03;;;8.40;99.90;;;;;;5010315;28;20032;-74
2023/10/07 04:38:57;;;;;;;14.00;4.75;;;8.40;99.90;;;;;;5024909;28;20089;-74
2023/10/07 04:41:32;;;;;;;10.70;4.70;;;8.40;99.90;;;;;;5024810;28;20034;-74
2023/10/07 04:47:20;;;;;;;9.25;4.78;;;8.30;99.90;;;;;;4998275;28;20453;-75
2023/10/07 04:49:57;;;;;;;10.57;4.50;;;8.30;99.90;;;;;;5008653;28;20523;-75
2023/10/07 04:52:40;;;;;;;7.80;3.83;;;8.20;99.90;;;;;;5010019;28;20493;-74
2023/10/07 04:55:19;;;;;;;12.45;4.57;;;8.20;99.90;;;;;;5011988;28;20018;-74
2023/10/07 05:02:59;;;;;;;9.65;4.07;;;8.20;99.90;;;;;;5008030;28;20040;-74
2023/10/07 05:05:29;;;;;;;8.50;3.55;;;8.20;99.90;;;;;;5007952;28;20083;-73
2023/10/07 05:08:11;;;;;;;10.80;4.32;;;8.10;99.90;;;;;;5008356;28;20036;-74
2023/10/07 05:10:42;;;;;;;8.43;3.58;;;8.10;99.90;;;;;;5005071;28;20045;-74
2023/10/07 05:13:09;;;;;;;9.45;3.92;;;8.20;99.90;;;;;;5008440;28;20101;-74
2023/10/07 05:15:41;;;;;;;9.52;3.92;;;8.20;99.90;;;;;;5010656;28;20408;-74
2023/10/07 05:18:15;;;;;;;10.07;3.85;;;8.20;99.90;;;;;;5009715;28;20018;-74
2023/10/07 05:20:42;;;;;;;7.93;3.60;;;8.10;99.90;;;;;;5010757;28;20121;-75
2023/10/07 05:23:17;;;;;;;9.82;4.80;;;8.10;99.90;;;;;;5009993;28;20022;-74
2023/10/07 05:25:49;;;;;;;7.32;3.47;;;8.10;99.90;;;;;;5009750;28;20026;-74
2023/10/07 05:28:22;;;;;;;9.27;4.25;;;8.10;99.90;;;;;;5008357;28;20033;-74
2023/10/07 05:30:54;;;;;;;15.17;4.73;;;8.10;99.90;;;;;;5022033;28;20356;-74
2023/10/07 05:33:24;;;;;;;9.57;3.83;;;8.10;99.90;;;;;;5006500;28;20365;-74
2023/10/07 05:35:50;;;;;;;7.78;3.53;;;8.10;99.90;;;;;;5009261;28;20030;-74
2023/10/07 05:38:28;;;;;;;13.48;4.10;;;8.20;99.90;;;;;;5011372;28;20053;-73
2023/10/07 05:41:14;;;;;;;8.15;3.70;;;8.20;99.90;;;;;;5010906;28;20155;-73
2023/10/07 05:43:48;;;;;;;8.65;3.85;;;8.20;99.90;;;;;;5008840;28;20481;-74
2023/10/07 05:46:17;;;;;;;12.25;4.40;;;8.30;99.90;;;;;;5002119;28;20030;-74
2023/10/07 05:48:43;;;;;;;8.63;3.80;;;8.30;99.90;;;;;;4987671;28;20378;-74
2023/10/07 05:51:16;;;;;;;10.07;4.18;;;8.20;99.90;;;;;;4988200;28;20037;-73
2023/10/07 05:53:51;;;;;;;12.25;4.47;;;8.30;99.90;;;;;;4986251;28;20418;-73
2023/10/07 05:56:30;;;;;;;11.52;4.40;;;8.30;99.90;;;;;;4987421;28;20030;-74
2023/10/07 05:59:06;;;;;;;13.50;5.45;;;8.30;99.90;;;;;;4991185;28;20038;-74
2023/10/07 06:01:42;;;;;;;9.57;4.57;;;8.30;99.90;;;;;;4986092;28;20437;-74
2023/10/07 06:04:11;;;;;;;10.93;4.65;;;8.30;99.90;;;;;;5002709;28;20040;-73
2023/10/07 06:06:38;;;;;;;11.45;4.70;;;8.30;99.90;;;;;;4992466;28;20022;-75
2023/10/07 06:09:04;;;;;;;10.20;4.72;;;8.30;99.90;;;;;;4986543;28;20034;-74
2023/10/07 06:11:34;;;;;;;11.13;4.78;;;8.30;99.90;;;;;;4990452;28;20030;-75
2023/10/07 06:14:01;;;;;;;9.35;4.45;;;8.30;99.90;;;;;;4989998;28;20026;-73
2023/10/07 06:16:26;;;;;;;12.45;4.95;;;8.30;99.90;;;;;;4988919;28;20477;-75
2023/10/07 06:19:03;;;;;;;12.00;5.35;;;8.30;99.90;;;;;;4989445;28;20045;-74
2023/10/07 06:21:29;;;;;;;9.90;4.07;;;8.30;99.90;;;;;;4987015;28;20027;-75
2023/10/07 06:23:58;;;;;;;11.43;5.30;;;8.30;99.90;;;;;;4989365;28;20027;-75
2023/10/07 06:26:35;;;;;;;11.35;4.82;;;8.30;99.90;;;;;;4984038;28;20033;-75
2023/10/07 06:31:55;;;;;;;10.00;5.50;;;8.40;99.90;;;;;;4991012;28;20144;-75
2023/10/07 06:34:33;;;;;;;10.77;4.72;;;8.40;99.90;;;;;;4987363;28;20126;-76
2023/10/07 06:36:59;;;;;;;10.98;5.05;;;8.40;99.90;;;;;;4987875;28;20038;-74
2023/10/07 06:39:30;;;;;;;8.35;4.30;;;8.50;99.90;;;;;;4989896;28;20149;-74
2023/10/07 06:41:59;;;;;;;9.10;4.82;;;8.50;99.90;;;;;;4990001;28;20023;-76
2023/10/07 06:44:43;;;;;;;9.52;4.80;;;8.60;99.90;;;;;;4988335;28;20237;-75
2023/10/07 06:47:29;;;;;;;;;;;8.60;99.90;;;;;;4986114;28;20034;-75
2023/10/07 06:50:04;;;;;;;11.35;4.75;;;8.60;99.90;;;;;;4988781;28;20442;-75
2023/10/07 06:52:33;;;;;;;13.35;4.57;;;8.80;99.90;;;;;;4988680;28;20036;-73
2023/10/07 06:55:06;;;;;;;9.32;5.03;;;8.80;99.90;;;;;;4988116;28;20046;-74
2023/10/07 06:57:47;;;;;;;15.73;5.38;;;8.90;99.90;;;;;;4987139;28;20033;-74
2023/10/07 07:00:27;;;;;;;11.55;4.95;;;9.00;99.90;;;;;;4989374;28;20038;-77
2023/10/07 07:02:59;;;;;;;14.07;5.75;;;9.00;99.90;;;;;;4989265;28;20038;-75
2023/10/07 07:05:26;;;;;;;13.70;5.88;;;9.10;99.90;;;;;;4990319;28;20492;-75
2023/10/07 07:07:55;;;;;;;17.17;5.25;;;9.20;99.90;;;;;;4990685;28;20046;-74
2023/10/07 07:10:31;;;;;;;14.93;5.80;;;9.30;99.90;;;;;;4990201;28;20073;-74
2023/10/07 07:13:13;;;;;;;10.95;4.68;;;9.40;99.90;;;;;;4985604;28;20022;-73
2023/10/07 07:15:41;;;;;;;13.07;5.10;;;9.50;99.90;;;;;;4987205;28;20169;-73
2023/10/07 07:20:48;;;;;;;14.20;5.13;;;9.70;99.90;;;;;;4990589;28;20030;-74
2023/10/07 07:23:21;;;;;;;10.73;4.32;;;9.80;99.90;;;;;;4988381;28;20207;-74
2023/10/07 07:25:59;;;;;;;12.40;5.10;;;9.90;99.90;;;;;;4991243;28;20042;-74
2023/10/07 07:28:30;;;;;;;13.60;5.07;;;10.00;99.90;;;;;;4983870;28;20014;-75
2023/10/07 07:30:57;;;;;;;11.15;5.60;;;10.10;99.90;;;;;;4989605;28;20060;-75
2023/10/07 07:33:31;;;;;;;13.57;5.28;;;10.20;99.90;;;;;;4987795;28;20026;-74
2023/10/07 07:36:18;;;;;;;10.30;4.20;;;10.30;99.90;;;;;;4990411;28;20031;-74
2023/10/07 07:38:52;;;;;;;7.38;4.25;;;10.40;99.90;;;;;;4989251;28;20018;-74
2023/10/07 07:41:29;;;;;;;9.00;4.80;;;10.40;99.90;;;;;;4988979;28;20029;-75
2023/10/07 07:44:11;;;;;;;13.07;5.05;;;10.50;99.90;;;;;;4991431;28;20550;-75
2023/10/07 07:46:51;;;;;;;8.35;4.47;;;10.50;99.90;;;;;;4988446;28;20015;-75
2023/10/07 07:49:27;;;;;;;10.13;4.70;;;10.60;99.90;;;;;;4991391;28;20026;-75
2023/10/07 07:51:53;;;;;;;10.20;4.78;;;10.70;99.90;;;;;;4990859;28;20041;-74
2023/10/07 07:54:25;;;;;;;11.60;5.25;;;10.70;99.90;;;;;;4989978;28;20027;-75
2023/10/07 07:56:54;;;;;;;10.77;4.85;;;10.90;99.90;;;;;;4990807;28;20022;-75
2023/10/07 07:59:32;;;;;;;10.23;4.47;;;10.90;99.90;;;;;;4990417;28;20018;-74
2023/10/07 08:02:24;;;;;;;13.82;4.60;;;11.10;99.90;;;;;;4990187;28;20033;-74
2023/10/07 08:05:08;;;;;;;10.52;4.93;;;11.20;99.90;;;;;;4989750;28;20041;-75
2023/10/07 08:07:33;;;;;;;10.35;3.85;;;11.30;99.90;;;;;;4991723;28;20018;-74
2023/10/07 08:10:10;;;;;;;9.38;4.45;;;11.30;99.90;;;;;;5009332;28;20513;-74
2023/10/07 08:12:37;;;;;;;8.88;4.30;;;11.40;99.90;;;;;;4995285;28;20018;-75
2023/10/07 08:15:39;;;;;;;10.02;4.85;;;11.40;99.90;;;;;;4988998;28;20019;-74
2023/10/07 08:18:06;;;;;;;7.72;4.00;;;11.50;99.90;;;;;;4990457;28;20038;-75
2023/10/07 08:20:37;;;;;;;10.70;5.30;;;11.60;99.90;;;;;;4992292;28;20031;-75
2023/10/07 08:26:23;;;;;;;11.98;4.65;;;11.80;99.90;;;;;;4990010;28;20128;-75
2023/10/07 08:29:01;;;;;;;9.13;4.80;;;11.90;99.90;;;;;;4992411;28;20019;-75
2023/10/07 08:31:43;;;;;;;9.25;4.57;;;12.00;99.90;;;;;;4989746;28;20035;-75
2023/10/07 08:36:59;;;;;;;13.55;5.18;;;12.10;99.90;;;;;;4993826;28;20027;-75
2023/10/07 08:39:27;;;;;;;11.82;4.40;;;12.20;99.90;;;;;;4990124;28;20432;-75
2023/10/07 08:42:12;;;;;;;10.68;4.88;;;12.30;99.90;;;;;;4990242;28;20026;-75
2023/10/07 08:44:40;;;;;;;10.68;5.20;;;12.50;99.90;;;;;;4992168;28;20077;-74
2023/10/07 08:47:15;;;;;;;10.73;4.80;;;12.70;99.90;;;;;;4992045;28;20077;-75
2023/10/07 08:49:44;;;;;;;13.68;5.55;;;12.80;99.90;;;;;;4982287;28;20029;-75
2023/10/07 08:52:10;;;;;;;11.43;5.03;;;12.90;99.90;;;;;;4993937;28;20296;-78
2023/10/07 08:54:44;;;;;;;13.20;6.00;;;13.00;99.90;;;;;;4996769;28;20022;-78
2023/10/07 08:57:16;;;;;;;11.43;5.13;;;13.10;99.90;;;;;;4998616;28;20297;-77
2023/10/07 08:59:52;;;;;;;13.20;5.05;;;13.20;99.90;;;;;;4994603;28;20068;-78
2023/10/07 09:02:30;;;;;;;12.63;4.53;;;13.30;99.90;;;;;;4995947;28;20034;-78
2023/10/07 09:05:09;;;;;;;12.30;5.05;;;13.40;99.90;;;;;;4995354;28;20026;-79
2023/10/07 09:07:48;;;;;;;12.98;4.63;;;13.40;99.90;;;;;;4998102;28;20018;-79
2023/10/07 09:10:29;;;;;;;12.07;4.68;;;13.60;99.80;;;;;;4996292;28;20026;-78
2023/10/07 09:12:57;;;;;;;9.23;4.22;;;13.60;99.80;;;;;;4995659;28;20097;-79
2023/10/07 09:15:34;;;;;;;11.23;4.78;;;13.70;99.90;;;;;;4995843;28;20109;-77
2023/10/07 09:18:04;;;;;;;10.90;4.50;;;13.80;99.90;;;;;;4993392;28;20030;-79
2023/10/07 09:20:45;;;;;;;8.75;4.13;;;13.80;99.90;;;;;;4993703;28;20026;-78
2023/10/07 09:23:19;;;;;;;9.50;4.28;;;13.90;99.90;;;;;;4994421;28;20050;-79
2023/10/07 09:25:52;;;;;;;13.60;5.05;;;13.90;99.90;;;;;;4994543;28;20022;-79
2023/10/07 09:28:36;;;;;;;13.68;4.47;;;14.00;99.90;;;;;;4994891;28;20030;-78
2023/10/07 09:31:08;;;;;;;11.63;5.60;;;14.10;99.90;;;;;;4993711;28;20034;-78
2023/10/07 09:33:36;;;;;;;8.98;4.63;;;14.20;99.90;;;;;;4990866;28;20026;-77
2023/10/07 09:39:05;;;;;;;11.55;4.90;;;14.50;99.70;;;;;;4993945;28;20034;-79
2023/10/07 09:41:32;;;;;;;14.57;5.32;;;14.60;99.60;;;;;;4993794;28;20048;-79
2023/10/07 09:44:00;;;;;;;14.18;5.28;;;14.80;99.90;;;;;;4990413;28;20033;-78
2023/10/07 09:46:39;;;;;;;9.93;4.57;;;14.80;99.70;;;;;;4994344;28;20022;-79
2023/10/07 09:49:22;;;;;;;12.48;4.65;;;15.00;99.50;;;;;;4995034;28;20026;-77
2023/10/07 09:51:50;;;;;;;10.85;4.05;;;15.10;99.40;;;;;;4995546;28;20474;-79
2023/10/07 09:54:36;;;;;;;10.07;3.63;;;15.30;99.30;;;;;;4993597;28;20061;-77
2023/10/07 09:57:19;;;;;;;8.20;3.90;;;15.40;98.90;;;;;;4997362;28;20029;-78
2023/10/07 10:03:20;;;;;;;8.57;3.95;;;15.70;98.30;;;;;;4993209;28;20042;-79
2023/10/07 10:06:17;;;;;;;6.55;3.40;;;16.00;97.50;;;;;;4997750;28;20050;-79
2023/10/07 10:17:00;;;;;;;9.80;3.17;;;16.50;96.30;;;;;;4993271;28;20026;-77
2023/10/07 10:22:22;;;;;;;4.97;2.83;;;16.80;94.40;;;;;;5000420;28;20100;-78
2023/10/07 10:24:54;;;;;;;9.45;3.00;;;17.00;93.10;;;;;;4995326;28;20102;-78
2023/10/07 10:27:21;;;;;;;10.25;2.90;;;17.10;92.40;;;;;;4994380;28;20608;-78
2023/10/07 10:29:55;;;;;;;5.25;2.80;;;17.30;92.60;;;;;;4992796;28;20026;-77
2023/10/07 10:32:36;;;;;;;7.05;2.88;;;17.50;91.10;;;;;;4993969;28;20018;-79
2023/10/07 10:35:06;;;;;;;4.22;1.90;;;17.60;90.20;;;;;;4994771;28;20029;-79
2023/10/07 10:37:42;;;;;;;5.88;2.40;;;17.80;87.90;;;;;;4993017;28;20061;-78
2023/10/07 10:40:24;;;;;;;6.07;2.67;;;17.90;86.10;;;;;;4992522;28;20570;-78
2023/10/07 10:42:50;;;;;;;9.65;2.45;;;18.00;83.60;;;;;;4993450;28;20051;-77
2023/10/07 10:45:33;;;;;;;6.45;2.83;;;18.10;83.80;;;;;;4993887;28;20044;-79
2023/10/07 10:48:08;;;;;;;5.63;2.80;;;18.20;83.80;;;;;;4994226;28;20078;-78
2023/10/07 10:50:34;;;;;;;5.93;3.30;;;18.20;83.10;;;;;;4995185;28;20601;-77
2023/10/07 10:53:00;;;;;;;7.13;2.45;;;18.40;83.20;;;;;;4993197;28;20113;-78
2023/10/07 10:55:37;;;;;;;6.03;2.13;;;18.40;82.20;;;;;;4993961;28;20053;-79
2023/10/07 10:58:19;;;;;;;7.72;3.30;;;18.50;81.50;;;;;;4988905;28;20039;-77
2023/10/07 11:00:56;;;;;;;7.70;2.55;;;18.60;79.60;;;;;;4994424;28;20026;-78
2023/10/07 11:03:28;;;;;;;6.43;2.33;;;18.70;79.30;;;;;;4991999;28;20018;-77
2023/10/07 11:05:57;;;;;;;6.28;2.70;;;18.80;78.90;;;;;;4990898;28;20026;-78
2023/10/07 11:08:33;;;;;;;5.97;2.28;;;18.90;76.30;;;;;;4991656;28;20023;-78
2023/10/07 11:11:02;;;;;;;5.90;2.28;;;19.00;75.70;;;;;;4992279;28;20076;-79
2023/10/07 11:13:39;;;;;;;4.45;2.20;;;19.10;73.60;;;;;;4992522;28;20174;-79
2023/10/07 11:16:22;;;;;;;4.57;2.08;;;19.20;71.60;;;;;;4993332;28;20501;-78
2023/10/07 11:18:49;;;;;;;6.75;2.63;;;19.30;71.30;;;;;;4995667;28;20011;-79
2023/10/07 11:21:26;;;;;;;6.70;2.53;;;19.30;71.00;;;;;;4993659;28;20386;-79
2023/10/07 11:23:55;;;;;;;5.13;2.50;;;19.30;70.20;;;;;;4993809;28;20454;-78
2023/10/07 11:26:24;;;;;;;6.20;2.25;;;19.40;70.40;;;;;;4995326;28;20018;-79
2023/10/07 11:28:51;;;;;;;4.28;2.30;;;19.50;70.00;;;;;;4995141;28;20021;-79
2023/10/07 11:31:37;;;;;;;6.05;2.55;;;19.50;69.80;;;;;;4991796;28;20229;-78
2023/10/07 11:34:06;;;;;;;6.00;2.10;;;19.50;69.50;;;;;;4992437;28;20053;-79
2023/10/07 11:37:09;;;;;;;3.40;2.10;;;19.60;69.40;;;;;;4993982;28;20077;-79
2023/10/07 11:39:44;;;;;;;4.88;2.00;;;19.60;68.10;;;;;;4977271;28;20058;-79
2023/10/07 11:42:17;;;;;;;6.82;2.15;;;19.70;68.20;;;;;;4992312;28;20030;-78
2023/10/07 11:44:49;;;;;;;5.55;2.33;;;19.70;68.00;;;;;;4992506;28;20094;-78
2023/10/07 11:47:27;;;;;;;5.30;2.42;;;19.70;67.80;;;;;;4993470;28;20027;-77
2023/10/07 11:49:56;;;;;;;5.05;2.08;;;19.80;67.80;;;;;;4992489;28;20237;-78
2023/10/07 11:52:21;;;;;;;5.45;2.42;;;19.90;66.90;;;;;;4993280;28;20472;-79
2023/10/07 11:54:48;;;;;;;6.13;2.80;;;19.90;67.30;;;;;;4993210;28;20026;-78
2023/10/07 11:57:20;;;;;;;5.55;1.92;;;20.00;67.50;;;;;;4991251;28;20508;-78
2023/10/07 11:59:52;;;;;;;4.15;2.13;;;20.00;66.70;;;;;;4993467;28;20033;-79
2023/10/07 12:02:18;;;;;;;5.20;2.50;;;20.10;65.50;;;;;;4993804;28;20038;-79
2023/10/07 12:04:51;;;;;;;5.13;2.65;;;20.10;65.30;;;;;;4992397;28;20023;-77
2023/10/07 12:07:19;;;;;;;4.20;2.08;;;20.10;65.30;;;;;;4995157;28;20027;-79
2023/10/07 12:09:48;;;;;;;5.85;2.30;;;20.00;65.00;;;;;;4992611;28;20506;-79
2023/10/07 12:12:15;;;;;;;5.00;2.22;;;20.10;65.80;;;;;;4991576;28;20058;-79
2023/10/07 12:14:49;;;;;;;6.15;2.30;;;20.00;66.10;;;;;;5006527;28;20117;-79
2023/10/07 12:17:18;;;;;;;4.47;2.53;;;20.00;66.40;;;;;;4991150;28;20060;-80
2023/10/07 12:19:46;;;;;;;4.80;2.53;;;20.00;66.90;;;;;;5009113;28;20029;-79
2023/10/07 12:22:21;;;;;;;5.50;2.78;;;20.00;66.70;;;;;;4993087;28;20389;-78
2023/10/07 12:24:52;;;;;;;6.25;2.65;;;20.10;66.60;;;;;;4992519;28;20108;-78
2023/10/07 12:27:26;;;;;;;4.78;2.42;;;20.10;66.30;;;;;;4992059;28;20105;-79
2023/10/07 12:30:03;;;;;;;5.68;2.20;;;20.10;66.40;;;;;;4992636;28;20022;-78
2023/10/07 12:32:39;;;;;;;6.43;2.53;;;20.10;66.40;;;;;;4989253;28;20117;-79
2023/10/07 12:35:11;;;;;;;4.45;2.15;;;20.20;66.70;;;;;;4990868;28;20027;-78
2023/10/07 12:37:38;;;;;;;5.57;2.55;;;20.20;66.30;;;;;;4993046;28;20038;-78
2023/10/07 12:40:11;;;;;;;6.68;2.15;;;20.20;66.40;;;;;;4992262;28;20022;-77
2023/10/07 12:42:41;;;;;;;5.80;2.90;;;20.20;66.40;;;;;;4991243;28;20096;-78
2023/10/07 12:45:11;;;;;;;5.25;2.35;;;20.20;66.80;;;;;;4995777;28;20046;-79
2023/10/07 12:47:39;;;;;;;6.55;2.92;;;20.20;67.00;;;;;;4996621;28;20050;-79
2023/10/07 12:52:52;;;;;;;6.65;2.17;;;20.20;67.30;;;;;;4995153;28;20029;-79
2023/10/07 12:55:21;;;;;;;5.95;2.70;;;20.20;67.10;;;;;;4998645;28;20014;-78
2023/10/07 12:57:50;;;;;;;4.85;2.20;;;20.30;67.30;;;;;;4997200;28;20101;-79
2023/10/07 13:00:22;;;;;;;6.43;2.58;;;20.30;67.40;;;;;;4997404;28;20101;-79
2023/10/07 13:02:49;;;;;;;9.20;2.70;;;20.30;66.70;;;;;;4993069;28;20479;-79
2023/10/07 13:05:23;;;;;;;6.68;2.72;;;20.40;67.00;;;;;;4990969;28;20505;-78
2023/10/07 13:07:53;;;;;;;5.97;2.40;;;20.40;67.00;;;;;;4994508;28;20478;-78
2023/10/07 13:10:34;;;;;;;6.80;2.30;;;20.40;67.10;;;;;;4988240;28;20034;-79
2023/10/07 13:13:13;;;;;;;5.18;2.30;;;20.40;67.60;;;;;;4993732;28;20217;-79
2023/10/07 13:15:43;;;;;;;6.72;3.17;;;20.50;67.20;;;;;;4993877;28;20034;-79
2023/10/07 13:18:13;;;;;;;5.82;2.63;;;20.50;67.30;;;;;;5010159;28;20022;-77
2023/10/07 13:20:41;;;;;;;4.93;2.60;;;20.50;67.10;;;;;;4992733;28;20046;-78
2023/10/07 13:23:11;;;;;;;6.78;2.70;;;20.60;66.60;;;;;;4996803;28;20133;-78
2023/10/07 13:25:45;;;;;;;5.45;2.95;;;20.60;67.20;;;;;;4998112;28;20061;-78
2023/10/07 13:28:11;;;;;;;7.35;2.72;;;20.60;67.30;;;;;;4989821;28;20441;-78
2023/10/07 13:30:46;;;;;;;7.93;3.13;;;20.70;67.10;;;;;;4992444;28;20490;-79
2023/10/07 13:33:12;;;;;;;7.30;3.10;;;20.70;67.20;;;;;;5006499;28;20034;-78
2023/10/07 13:35:41;;;;;;;9.48;3.00;;;20.70;67.40;;;;;;4993677;28;20019;-79
2023/10/07 13:38:10;;;;;;;11.05;4.10;;;20.70;67.80;;;;;;4995855;28;20496;-80
2023/10/07 13:40:39;;;;;;;5.95;3.00;;;20.80;67.50;;;;;;4996647;28;20031;-79
2023/10/07 13:43:15;;;;;;;9.35;3.58;;;20.80;67.80;;;;;;4995754;28;20394;-78
2023/10/07 13:45:57;;;;;;;5.88;2.95;;;20.90;67.50;;;;;;4995639;28;20022;-79
2023/10/07 13:48:30;;;;;;;4.93;2.38;;;21.00;66.90;;;;;;4999786;28;20410;-79
2023/10/07 13:51:01;;;;;;;5.85;2.65;;;21.10;66.70;;;;;;4997397;28;20123;-80
2023/10/07 13:56:12;;;;;;;6.40;2.53;;;21.20;66.50;;;;;;4998911;28;20049;-80
2023/10/07 13:58:39;;;;;;;9.10;2.80;;;21.30;65.50;;;;;;4999761;28;20022;-79
2023/10/07 14:01:07;;;;;;;4.13;1.88;;;21.30;65.30;;;;;;4996776;28;20026;-80
2023/10/07 14:03:39;;;;;;;3.67;1.80;;;21.30;65.40;;;;;;5001079;28;20015;-79
2023/10/07 14:06:06;;;;;;;10.10;2.63;;;21.30;65.10;;;;;;4996285;28;20025;-79
2023/10/07 14:08:42;;;;;;;4.38;2.40;;;21.30;65.30;;;;;;4997831;28;20033;-80
2023/10/07 14:11:09;;;;;;;6.25;2.30;;;21.20;65.40;;;;;;4995887;28;20030;-79
2023/10/07 14:13:36;;;;;;;6.07;2.60;;;21.20;65.30;;;;;;4999097;28;20027;-79
2023/10/07 14:16:09;;;;;;;4.80;2.35;;;21.20;65.60;;;;;;5001227;28;20010;-79
2023/10/07 14:18:37;;;;;;;6.05;2.50;;;21.10;65.70;;;;;;4999895;28;20042;-78
2023/10/07 14:21:06;;;;;;;9.10;2.50;;;21.10;66.20;;;;;;4996783;28;20030;-79
2023/10/07 14:23:38;;;;;;;6.95;2.50;;;21.10;65.60;;;;;;5009793;28;20054;-80
2023/10/07 14:26:22;;;;;;;6.15;2.85;;;21.10;64.90;;;;;;4999279;28;20014;-78
2023/10/07 14:28:51;;;;;;;4.85;2.70;;;21.10;65.20;;;;;;5015447;28;20026;-76
2023/10/07 14:31:17;;;;;;;7.65;3.25;;;21.10;65.30;;;;;;4997500;28;20019;-79